createdAt,value
2019-05-18T00:00:43.397Z,19.63
2019-05-18T00:03:12.152Z,19.20
2019-05-18T00:05:40.999Z,20.10
2019-05-18T00:08:09.872Z,21.43
2019-05-18T00:10:38.638Z,18.80
2019-05-18T00:13:07.485Z,21.97
2019-05-18T00:15:36.240Z,18.83
2019-05-18T00:18:05.172Z,18.50
2019-05-18T00:20:34.002Z,19.20
2019-05-18T00:23:02.859Z,18.83
2019-05-18T00:25:31.970Z,20.37
2019-05-18T00:28:00.767Z,17.23
2019-05-18T00:30:29.635Z,17.83
2019-05-18T00:32:58.367Z,20.10
2019-05-18T00:35:27.136Z,18.00
2019-05-18T00:37:55.858Z,17.97
2019-05-18T00:40:24.612Z,17.93
2019-05-18T00:42:53.379Z,18.63
2019-05-18T00:45:22.232Z,18.47
2019-05-18T00:47:51.002Z,17.83
2019-05-18T00:50:20.103Z,17.83
2019-05-18T00:52:48.945Z,19.67
2019-05-18T00:55:17.665Z,18.90
2019-05-18T00:57:46.438Z,19.67
2019-05-18T01:00:15.646Z,17.67
2019-05-18T01:02:44.454Z,18.27
2019-05-18T01:05:13.474Z,19.40
2019-05-18T01:07:42.319Z,21.33
2019-05-18T01:10:11.522Z,20.67
2019-05-18T01:12:40.276Z,19.63
2019-05-18T01:15:09.679Z,19.53
2019-05-18T01:17:38.529Z,18.97
2019-05-18T01:20:08.382Z,19.13
2019-05-18T01:22:37.174Z,20.10
2019-05-18T01:25:06.622Z,16.83
2019-05-18T01:27:35.403Z,18.27
2019-05-18T01:30:05.317Z,17.47
2019-05-18T01:32:34.095Z,18.47
2019-05-18T01:35:02.935Z,19.93
2019-05-18T01:37:31.746Z,19.23
2019-05-18T01:40:00.689Z,17.70
2019-05-18T01:42:29.825Z,16.17
2019-05-18T01:44:58.597Z,16.60
2019-05-18T01:47:27.358Z,17.07
2019-05-18T01:49:56.111Z,13.77
2019-05-18T01:52:24.866Z,14.80
2019-05-18T01:54:53.600Z,15.77
2019-05-18T01:57:22.347Z,16.07
2019-05-18T01:59:51.100Z,17.07
2019-05-18T02:02:19.887Z,17.23
2019-05-18T02:04:48.623Z,16.10
2019-05-18T02:07:17.358Z,17.20
2019-05-18T02:09:46.115Z,17.00
2019-05-18T02:12:15.104Z,17.37
2019-05-18T02:14:43.956Z,18.27
2019-05-18T02:17:12.682Z,17.37
2019-05-18T02:19:41.689Z,17.03
2019-05-18T02:22:10.516Z,21.00
2019-05-18T02:24:39.454Z,18.37
2019-05-18T02:27:08.185Z,19.03
2019-05-18T02:29:36.944Z,17.33
2019-05-18T02:32:05.748Z,17.07
2019-05-18T02:34:34.552Z,15.33
2019-05-18T02:37:03.573Z,17.63
2019-05-18T02:39:32.360Z,19.30
2019-05-18T02:42:01.168Z,18.37
2019-05-18T02:44:30.278Z,19.80
2019-05-18T02:46:59.030Z,18.03
2019-05-18T02:49:27.777Z,17.83
2019-05-18T02:51:56.540Z,19.17
2019-05-18T02:54:25.347Z,18.83
2019-05-18T02:56:54.078Z,17.33
2019-05-18T02:59:22.948Z,19.73
2019-05-18T03:01:51.699Z,19.20
2019-05-18T03:04:20.474Z,21.67
2019-05-18T03:06:49.304Z,19.87
2019-05-18T03:09:18.054Z,19.77
2019-05-18T03:11:47.262Z,18.30
2019-05-18T03:14:16.363Z,19.00
2019-05-18T03:16:45.140Z,19.77
2019-05-18T03:19:13.964Z,17.97
2019-05-18T03:21:42.690Z,18.10
2019-05-18T03:24:11.442Z,17.83
2019-05-18T03:26:40.180Z,17.30
2019-05-18T03:29:09.413Z,19.13
2019-05-18T03:31:38.141Z,18.57
2019-05-18T03:34:06.970Z,18.33
2019-05-18T03:36:35.824Z,18.50
2019-05-18T03:39:05.729Z,20.60
2019-05-18T03:41:34.568Z,24.37
2019-05-18T03:44:03.416Z,18.10
2019-05-18T03:46:32.239Z,20.10
2019-05-18T03:49:00.977Z,20.13
2019-05-18T03:51:29.753Z,21.90
2019-05-18T03:53:58.494Z,21.70
2019-05-18T03:56:27.218Z,21.83
2019-05-18T03:58:56.426Z,23.63
2019-05-18T04:01:25.152Z,18.73
2019-05-18T04:03:53.881Z,19.50
2019-05-18T04:06:22.692Z,20.07
2019-05-18T04:08:51.601Z,20.50
2019-05-18T04:11:20.328Z,21.80
2019-05-18T04:13:49.086Z,21.07
2019-05-18T04:16:17.882Z,21.43
2019-05-18T04:18:46.642Z,21.70
2019-05-18T04:21:16.761Z,21.50
2019-05-18T04:23:45.494Z,20.77
2019-05-18T04:26:14.269Z,19.27
2019-05-18T04:28:43.055Z,20.93
2019-05-18T04:31:11.815Z,20.40
2019-05-18T04:33:40.556Z,23.20
2019-05-18T04:36:09.601Z,24.33
2019-05-18T04:38:38.359Z,25.07
2019-05-18T04:41:07.169Z,26.73
2019-05-18T04:43:35.927Z,25.80
2019-05-18T04:46:04.752Z,26.10
2019-05-18T04:48:33.509Z,24.83
2019-05-18T04:51:02.227Z,28.80
2019-05-18T04:53:30.986Z,26.80
2019-05-18T04:55:59.879Z,26.07
2019-05-18T04:58:28.619Z,26.43
2019-05-18T05:00:57.356Z,28.03
2019-05-18T05:03:26.138Z,27.13
2019-05-18T05:05:54.926Z,30.20
2019-05-18T05:08:23.676Z,29.10
2019-05-18T05:10:52.504Z,28.90
2019-05-18T05:13:21.218Z,28.83
2019-05-18T05:15:50.052Z,26.43
2019-05-18T05:18:18.858Z,30.97
2019-05-18T05:20:47.969Z,29.80
2019-05-18T05:23:16.978Z,31.60
2019-05-18T05:25:45.716Z,30.23
2019-05-18T05:28:14.590Z,30.60
2019-05-18T05:30:43.518Z,32.17
2019-05-18T05:33:12.251Z,31.43
2019-05-18T05:35:41.132Z,33.97
2019-05-18T05:38:09.974Z,35.67
2019-05-18T05:40:39.584Z,34.63
2019-05-18T05:43:08.345Z,36.43
2019-05-18T05:45:37.236Z,41.20
2019-05-18T05:48:06.069Z,45.77
2019-05-18T05:50:36.567Z,45.10
2019-05-18T05:53:05.674Z,43.13
2019-05-18T05:55:34.524Z,40.70
2019-05-18T05:58:03.340Z,44.47
2019-05-18T06:00:32.123Z,37.53
2019-05-18T06:03:00.851Z,42.23
2019-05-18T06:05:29.708Z,35.77
2019-05-18T06:07:59.756Z,35.27
2019-05-18T06:10:28.592Z,36.97
2019-05-18T06:12:57.326Z,37.60
2019-05-18T06:15:26.260Z,33.60
2019-05-18T06:17:58.251Z,34.63
2019-05-18T06:20:27.057Z,36.77
2019-05-18T06:22:56.069Z,33.27
2019-05-18T06:25:24.826Z,30.20
2019-05-18T06:27:53.700Z,31.93
2019-05-18T06:30:22.785Z,32.13
2019-05-18T06:32:51.586Z,32.37
2019-05-18T06:35:21.667Z,28.73
2019-05-18T06:37:50.470Z,29.67
2019-05-18T06:40:19.332Z,25.07
2019-05-18T06:42:48.060Z,25.53
2019-05-18T06:45:17.053Z,24.00
2019-05-18T06:47:48.342Z,25.83
2019-05-18T06:50:19.375Z,23.07
2019-05-18T06:52:48.719Z,23.80
2019-05-18T06:55:17.828Z,22.80
2019-05-18T06:57:47.241Z,20.80
2019-05-18T07:00:17.402Z,20.10
2019-05-18T07:02:46.432Z,18.00
2019-05-18T07:05:15.409Z,15.57
2019-05-18T07:07:44.327Z,17.07
2019-05-18T07:10:13.912Z,14.97
2019-05-18T07:12:42.731Z,13.77
2019-05-18T07:15:12.028Z,13.47
2019-05-18T07:17:40.748Z,16.47
2019-05-18T07:20:09.923Z,14.90
2019-05-18T07:22:38.661Z,14.37
2019-05-18T07:25:08.371Z,14.83
2019-05-18T07:27:37.189Z,14.27
2019-05-18T07:30:06.439Z,14.17
2019-05-18T07:32:35.342Z,13.73
2019-05-18T07:35:04.476Z,12.77
2019-05-18T07:37:33.281Z,12.03
2019-05-18T07:40:02.347Z,12.97
2019-05-18T07:42:31.180Z,12.57
2019-05-18T07:45:00.069Z,14.70
2019-05-18T07:47:29.215Z,10.93
2019-05-18T07:49:58.008Z,10.93
2019-05-18T07:52:29.320Z,11.27
2019-05-18T07:54:58.037Z,11.67
2019-05-18T07:57:26.956Z,11.73
2019-05-18T07:59:55.756Z,10.73
2019-05-18T08:02:24.574Z,11.90
2019-05-18T08:04:53.436Z,10.40
2019-05-18T08:07:28.038Z,10.63
2019-05-18T08:09:56.850Z,11.00
2019-05-18T08:12:25.625Z,10.30
2019-05-18T08:14:54.513Z,10.57
2019-05-18T08:17:24.873Z,8.83
2019-05-18T08:20:04.800Z,8.97
2019-05-18T08:22:38.086Z,10.13
2019-05-18T08:25:07.547Z,10.60
2019-05-18T08:27:37.299Z,9.33
2019-05-18T08:30:12.761Z,9.80
2019-05-18T08:32:42.485Z,10.00
2019-05-18T08:35:11.419Z,10.00
2019-05-18T08:37:45.262Z,10.10
2019-05-18T08:40:15.626Z,9.90
2019-05-18T08:42:47.256Z,10.77
2019-05-18T08:45:21.811Z,10.10
2019-05-18T08:47:52.473Z,9.93
2019-05-18T08:50:21.312Z,9.40
2019-05-18T08:52:50.609Z,10.50
2019-05-18T08:55:19.924Z,7.17
2019-05-18T08:57:49.111Z,8.10
2019-05-18T09:00:19.181Z,9.23
2019-05-18T09:02:53.955Z,8.80
2019-05-18T09:05:27.047Z,9.10
2019-05-18T09:08:01.451Z,8.50
2019-05-18T09:10:35.821Z,7.20
2019-05-18T09:13:10.826Z,9.20
2019-05-18T09:15:48.077Z,6.23
2019-05-18T09:18:17.472Z,7.00
2019-05-18T09:20:47.032Z,6.60
2019-05-18T09:23:19.148Z,7.10
2019-05-18T09:25:50.466Z,6.30
2019-05-18T09:28:19.985Z,6.73
2019-05-18T09:30:51.427Z,7.23
2019-05-18T09:33:24.552Z,7.60
2019-05-18T09:35:56.537Z,7.67
2019-05-18T09:38:36.899Z,8.33
2019-05-18T09:41:06.916Z,8.50
2019-05-18T09:43:37.668Z,8.27
2019-05-18T09:46:07.649Z,7.60
2019-05-18T09:48:45.496Z,8.90
2019-05-18T09:51:16.790Z,9.00
2019-05-18T09:53:51.659Z,8.83
2019-05-18T09:56:21.555Z,8.83
2019-05-18T09:58:51.162Z,8.77
2019-05-18T10:01:23.274Z,7.93
2019-05-18T10:04:01.428Z,8.57
2019-05-18T10:06:31.591Z,8.43
2019-05-18T10:09:05.657Z,7.70
2019-05-18T10:11:38.891Z,8.80
2019-05-18T10:14:12.458Z,7.53
2019-05-18T10:16:43.096Z,6.93
2019-05-18T10:19:16.041Z,6.50
2019-05-18T10:21:46.348Z,6.60
2019-05-18T10:24:17.042Z,6.47
2019-05-18T10:26:47.846Z,6.60
2019-05-18T10:29:17.182Z,6.55
2019-05-18T10:31:51.484Z,6.60
2019-05-18T10:34:21.326Z,8.10
2019-05-18T10:36:54.369Z,6.67
2019-05-18T10:39:25.313Z,6.53
2019-05-18T10:41:55.154Z,6.12
2019-05-18T10:44:25.029Z,7.27
2019-05-18T10:46:56.814Z,5.27
2019-05-18T10:49:26.751Z,8.23
2019-05-18T10:51:55.665Z,6.12
2019-05-18T10:54:24.815Z,6.20
2019-05-18T10:56:53.599Z,5.95
2019-05-18T10:59:22.436Z,5.80
2019-05-18T11:01:51.289Z,5.80
2019-05-18T11:04:20.120Z,5.57
2019-05-18T11:06:49.007Z,5.33
2019-05-18T11:09:17.928Z,5.60
2019-05-18T11:11:46.938Z,6.40
2019-05-18T11:14:18.712Z,5.97
2019-05-18T11:16:46.192Z,6.30
2019-05-18T11:19:14.997Z,6.77
2019-05-18T11:21:43.821Z,7.30
2019-05-18T11:24:12.650Z,6.78
2019-05-18T11:26:41.405Z,6.67
2019-05-18T11:29:10.327Z,6.67
2019-05-18T11:31:39.318Z,7.28
2019-05-18T11:34:08.316Z,7.03
2019-05-18T11:36:37.158Z,7.70
2019-05-18T11:39:07.297Z,7.93
2019-05-18T11:41:36.247Z,7.10
2019-05-18T11:44:05.402Z,6.73
2019-05-18T11:46:34.178Z,6.40
2019-05-18T11:49:02.977Z,6.80
2019-05-18T11:51:31.970Z,5.42
2019-05-18T11:54:00.840Z,5.40
2019-05-18T11:56:29.934Z,5.17
2019-05-18T11:58:59.016Z,5.40
2019-05-18T12:01:28.504Z,5.33
2019-05-18T12:03:57.335Z,9.73
2019-05-18T12:06:26.124Z,5.47
2019-05-18T12:08:58.483Z,5.40
2019-05-18T12:11:25.473Z,4.95
2019-05-18T12:13:54.268Z,4.12
2019-05-18T12:16:23.183Z,4.70
2019-05-18T12:18:52.041Z,5.03
2019-05-18T12:21:21.039Z,4.47
2019-05-18T12:23:49.878Z,5.00
2019-05-18T12:26:18.708Z,4.03
2019-05-18T12:28:47.619Z,4.12
2019-05-18T12:31:17.686Z,5.03
2019-05-18T12:33:46.993Z,4.20
2019-05-18T12:36:15.987Z,4.12
2019-05-18T12:38:44.875Z,4.80
2019-05-18T12:41:14.788Z,5.43
2019-05-18T12:43:42.670Z,4.80
2019-05-18T12:46:12.522Z,4.17
2019-05-18T12:48:41.296Z,4.20
2019-05-18T12:51:10.365Z,5.53
2019-05-18T12:53:39.220Z,3.75
2019-05-18T12:56:08.179Z,4.20
2019-05-18T12:58:37.711Z,4.20
2019-05-18T13:01:06.693Z,4.08
2019-05-18T13:03:35.609Z,4.37
2019-05-18T13:06:04.827Z,4.33
2019-05-18T13:08:33.625Z,4.50
2019-05-18T13:11:02.501Z,4.70
2019-05-18T13:13:31.375Z,4.08
2019-05-18T13:16:00.243Z,4.35
2019-05-18T13:18:29.064Z,4.50
2019-05-18T13:20:57.902Z,5.10
2019-05-18T13:23:26.692Z,5.20
2019-05-18T13:25:55.614Z,4.85
2019-05-18T13:28:24.396Z,4.70
2019-05-18T13:30:53.214Z,5.03
2019-05-18T13:33:22.120Z,4.40
2019-05-18T13:35:50.978Z,4.60
2019-05-18T13:38:19.719Z,5.25
2019-05-18T13:40:48.755Z,4.47
2019-05-18T13:43:17.663Z,4.95
2019-05-18T13:45:46.476Z,4.67
2019-05-18T13:48:15.422Z,5.12
2019-05-18T13:50:44.983Z,4.47
2019-05-18T13:53:13.675Z,5.00
2019-05-18T13:55:42.561Z,4.28
2019-05-18T13:58:11.596Z,5.10
2019-05-18T14:00:40.462Z,5.40
2019-05-18T14:03:09.553Z,4.92
2019-05-18T14:05:38.401Z,4.70
2019-05-18T14:08:07.294Z,4.47
2019-05-18T14:10:36.168Z,4.53
2019-05-18T14:13:05.009Z,4.95
2019-05-18T14:15:33.831Z,5.17
2019-05-18T14:18:02.608Z,4.00
2019-05-18T14:20:31.353Z,4.20
2019-05-18T14:23:00.540Z,4.95
2019-05-18T14:25:29.293Z,3.98
2019-05-18T14:27:58.279Z,4.03
2019-05-18T14:30:27.347Z,3.58
2019-05-18T14:32:56.104Z,3.77
2019-05-18T14:35:25.085Z,4.40
2019-05-18T14:37:54.159Z,4.37
2019-05-18T14:40:23.068Z,3.98
2019-05-18T14:42:51.811Z,4.05
2019-05-18T14:45:20.754Z,4.00
2019-05-18T14:47:49.790Z,3.98
2019-05-18T14:50:19.454Z,4.10
2019-05-18T14:52:48.580Z,3.98
2019-05-18T14:55:31.385Z,3.90
2019-05-18T14:57:49.583Z,3.30
2019-05-18T15:00:18.988Z,3.10
2019-05-18T15:02:47.795Z,3.52
2019-05-18T15:05:17.272Z,3.83
2019-05-18T15:07:46.029Z,4.15
2019-05-18T15:10:15.324Z,4.83
2019-05-18T15:12:44.175Z,3.75
2019-05-18T15:15:14.200Z,3.35
2019-05-18T15:17:43.176Z,3.37
2019-05-18T15:20:12.331Z,3.50
2019-05-18T15:22:41.113Z,4.05
2019-05-18T15:25:10.835Z,3.55
2019-05-18T15:27:39.732Z,3.62
2019-05-18T15:30:09.297Z,3.75
2019-05-18T15:32:38.293Z,3.27
2019-05-18T15:35:09.033Z,3.10
2019-05-18T15:37:38.020Z,3.47
2019-05-18T15:40:07.620Z,4.00
2019-05-18T15:42:36.664Z,3.15
2019-05-18T15:45:05.868Z,3.00
2019-05-18T15:47:34.625Z,3.50
2019-05-18T15:50:03.514Z,3.37
2019-05-18T15:52:32.364Z,3.20
2019-05-18T15:55:01.188Z,3.17
2019-05-18T15:57:30.055Z,3.60
2019-05-18T15:59:59.015Z,3.20
2019-05-18T16:02:27.849Z,3.02
2019-05-18T16:04:56.859Z,3.85
2019-05-18T16:07:25.698Z,2.80
2019-05-18T16:09:54.541Z,2.90
2019-05-18T16:12:23.289Z,3.95
2019-05-18T16:14:52.165Z,3.55
2019-05-18T16:17:20.994Z,3.70
2019-05-18T16:19:49.841Z,3.50
2019-05-18T16:22:18.606Z,3.92
2019-05-18T16:24:47.430Z,4.00
2019-05-18T16:27:16.535Z,4.00
2019-05-18T16:29:45.357Z,3.50
2019-05-18T16:32:14.099Z,3.37
2019-05-18T16:34:43.391Z,3.77
2019-05-18T16:37:12.263Z,3.52
2019-05-18T16:39:41.255Z,3.72
2019-05-18T16:42:10.016Z,3.42
2019-05-18T16:44:38.830Z,3.75
2019-05-18T16:47:07.608Z,4.75
2019-05-18T16:49:36.930Z,4.83
2019-05-18T16:52:06.046Z,5.30
2019-05-18T16:54:34.950Z,5.03
2019-05-18T16:57:04.058Z,5.67
2019-05-18T16:59:32.995Z,5.30
2019-05-18T17:02:01.703Z,5.62
2019-05-18T17:04:30.538Z,6.12
2019-05-18T17:06:59.496Z,8.30
2019-05-18T17:09:28.360Z,6.92
2019-05-18T17:11:57.269Z,7.35
2019-05-18T17:14:26.339Z,6.50
2019-05-18T17:16:55.584Z,7.37
2019-05-18T17:19:24.536Z,6.70
2019-05-18T17:21:53.298Z,7.03
2019-05-18T17:24:22.086Z,7.70
2019-05-18T17:26:53.292Z,7.83
2019-05-18T17:29:22.039Z,8.20
2019-05-18T17:31:51.027Z,8.23
2019-05-18T17:34:19.880Z,8.83
2019-05-18T17:36:52.552Z,8.80
2019-05-18T17:39:19.372Z,9.20
2019-05-18T17:41:48.383Z,8.30
2019-05-18T17:44:17.271Z,8.25
2019-05-18T17:46:46.126Z,8.33
2019-05-18T17:49:26.349Z,8.70
2019-05-18T17:51:45.961Z,14.07
2019-05-18T17:54:14.752Z,14.43
2019-05-18T17:56:43.551Z,11.68
2019-05-18T17:59:12.673Z,9.75
2019-05-18T18:01:41.501Z,10.48
2019-05-18T18:04:10.323Z,10.80
2019-05-18T18:06:39.186Z,10.20
2019-05-18T18:09:10.961Z,13.70
2019-05-18T18:11:40.709Z,12.25
2019-05-18T18:14:09.668Z,17.35
2019-05-18T18:16:38.700Z,14.60
2019-05-18T18:19:07.568Z,11.70
2019-05-18T18:21:36.451Z,11.18
2019-05-18T18:24:05.519Z,12.37
2019-05-18T18:26:35.966Z,12.30
2019-05-18T18:29:05.042Z,11.05
2019-05-18T18:31:33.931Z,11.85
2019-05-18T18:34:02.713Z,10.32
2019-05-18T18:36:31.587Z,9.75
2019-05-18T18:39:00.401Z,8.78
2019-05-18T18:41:29.276Z,9.50
2019-05-18T18:43:58.125Z,8.95
2019-05-18T18:46:27.120Z,11.47
2019-05-18T18:48:55.918Z,14.25
2019-05-18T18:51:24.785Z,13.22
2019-05-18T18:53:53.853Z,12.07
2019-05-18T18:56:22.615Z,14.40
2019-05-18T18:58:51.445Z,16.90
2019-05-18T19:01:20.292Z,15.63
2019-05-18T19:03:49.153Z,13.43
2019-05-18T19:06:18.097Z,10.30
2019-05-18T19:08:46.910Z,14.73
2019-05-18T19:11:16.208Z,14.77
2019-05-18T19:13:45.828Z,11.63
2019-05-18T19:16:14.943Z,10.93
2019-05-18T19:18:43.883Z,11.33
2019-05-18T19:21:12.737Z,12.20
2019-05-18T19:23:41.489Z,11.27
2019-05-18T19:26:10.704Z,11.63
2019-05-18T19:28:39.780Z,10.93
2019-05-18T19:31:08.693Z,11.27
2019-05-18T19:33:37.763Z,10.90
2019-05-18T19:36:07.021Z,10.80
2019-05-18T19:38:35.994Z,11.37
2019-05-18T19:41:04.962Z,10.77
2019-05-18T19:43:33.933Z,10.37
2019-05-18T19:46:02.878Z,10.60
2019-05-18T19:48:31.790Z,10.30
2019-05-18T19:51:00.681Z,10.23
2019-05-18T19:53:29.458Z,11.70
2019-05-18T19:55:58.426Z,11.00
2019-05-18T19:58:27.576Z,10.20
2019-05-18T20:00:56.409Z,10.47
2019-05-18T20:03:25.283Z,10.87
2019-05-18T20:05:54.100Z,10.37
2019-05-18T20:08:22.869Z,10.67
2019-05-18T20:10:51.673Z,10.57
2019-05-18T20:13:20.437Z,10.93
2019-05-18T20:15:49.186Z,10.60
2019-05-18T20:18:17.936Z,11.37
2019-05-18T20:20:46.710Z,11.03
2019-05-18T20:23:15.561Z,10.97
2019-05-18T20:25:44.325Z,11.47
2019-05-18T20:28:23.284Z,11.10
2019-05-18T20:30:43.638Z,11.60
2019-05-18T20:33:12.376Z,11.30
2019-05-18T20:35:41.294Z,12.20
2019-05-18T20:38:10.292Z,11.17
2019-05-18T20:40:39.044Z,11.73
2019-05-18T20:43:07.814Z,11.73
2019-05-18T20:45:37.730Z,11.67
2019-05-18T20:48:06.491Z,13.77
2019-05-18T20:50:35.212Z,13.70
2019-05-18T20:53:03.959Z,11.83
2019-05-18T20:55:32.804Z,10.73
2019-05-18T20:58:01.739Z,11.87
2019-05-18T21:00:30.559Z,12.00
2019-05-18T21:02:59.585Z,10.67
2019-05-18T21:05:28.444Z,10.70
2019-05-18T21:07:57.213Z,11.77
2019-05-18T21:10:25.954Z,11.87
2019-05-18T21:12:54.714Z,11.93
2019-05-18T21:15:24.829Z,11.90
2019-05-18T21:17:53.683Z,11.80
2019-05-18T21:20:22.415Z,11.63
2019-05-18T21:22:51.175Z,12.90
2019-05-18T21:25:19.997Z,12.77
2019-05-18T21:27:48.788Z,12.97
2019-05-18T21:30:17.783Z,12.20
2019-05-18T21:32:46.592Z,11.67
2019-05-18T21:35:15.540Z,11.30
2019-05-18T21:37:44.384Z,11.77
2019-05-18T21:40:13.380Z,12.20
2019-05-18T21:42:42.277Z,12.80
2019-05-18T21:45:12.343Z,12.43
2019-05-18T21:47:41.106Z,12.20
2019-05-18T21:50:10.352Z,11.40
2019-05-18T21:52:41.823Z,11.97
2019-05-18T21:55:10.309Z,11.23
2019-05-18T21:57:39.072Z,11.77
2019-05-18T22:00:09.673Z,12.47
2019-05-18T22:02:38.743Z,12.77
2019-05-18T22:05:08.028Z,12.47
2019-05-18T22:07:36.872Z,12.43
2019-05-18T22:10:06.266Z,12.60
2019-05-18T22:12:35.182Z,13.10
2019-05-18T22:15:04.110Z,13.30
2019-05-18T22:17:35.244Z,13.43
2019-05-18T22:20:04.380Z,12.83
2019-05-18T22:22:33.394Z,13.43
2019-05-18T22:25:02.202Z,13.40
2019-05-18T22:27:31.267Z,13.13
2019-05-18T22:30:00.127Z,13.53
2019-05-18T22:32:28.988Z,12.23
2019-05-18T22:34:57.747Z,12.73
2019-05-18T22:37:26.508Z,13.30
2019-05-18T22:39:55.271Z,13.50
2019-05-18T22:42:24.805Z,13.70
2019-05-18T22:44:53.555Z,13.13
2019-05-18T22:47:22.414Z,14.17
2019-05-18T22:49:51.328Z,13.67
2019-05-18T22:52:20.121Z,13.70
2019-05-18T22:54:48.999Z,15.43
2019-05-18T22:57:17.745Z,12.90
2019-05-18T22:59:46.480Z,13.87
2019-05-18T23:02:15.262Z,14.00
2019-05-18T23:04:44.249Z,13.33
2019-05-18T23:07:13.244Z,13.63
2019-05-18T23:09:42.085Z,13.37
2019-05-18T23:12:10.996Z,14.83
2019-05-18T23:14:39.846Z,13.53
2019-05-18T23:17:08.756Z,13.73
2019-05-18T23:19:37.524Z,14.80
2019-05-18T23:22:06.495Z,15.07
2019-05-18T23:24:35.464Z,14.33
2019-05-18T23:27:04.291Z,12.57
2019-05-18T23:29:33.026Z,12.73
2019-05-18T23:32:01.862Z,14.67
2019-05-18T23:34:30.637Z,16.13
2019-05-18T23:36:59.472Z,15.90
2019-05-18T23:39:28.276Z,17.97
2019-05-18T23:41:57.643Z,14.17
2019-05-18T23:44:26.404Z,13.57
2019-05-18T23:46:55.158Z,16.20
2019-05-18T23:49:23.930Z,15.47
2019-05-18T23:51:52.700Z,16.63
2019-05-18T23:54:21.461Z,15.77
2019-05-18T23:56:50.196Z,13.87
2019-05-18T23:59:18.944Z,14.30
